sensor_id;sensor_type;location;lat;lon;timestamp;temperature;humidity
51982;DHT22;37998;53.416;6.730;2023-02-11T00:01:12;6.50;99.90
51982;DHT22;37998;53.416;6.730;2023-02-11T00:03:40;6.50;99.90
51982;DHT22;37998;53.416;6.730;2023-02-11T00:06:07;6.40;99.90
51982;DHT22;37998;53.416;6.730;2023-02-11T00:08:34;6.40;99.90
51982;DHT22;37998;53.416;6.730;2023-02-11T00:11:00;6.40;99.90
51982;DHT22;37998;53.416;6.730;2023-02-11T00:13:26;6.40;99.90
51982;DHT22;37998;53.416;6.730;2023-02-11T00:15:52;6.40;99.90
51982;DHT22;37998;53.416;6.730;2023-02-11T00:18:18;6.40;99.90
51982;DHT22;37998;53.416;6.730;2023-02-11T00:20:43;6.40;99.90
51982;DHT22;37998;53.416;6.730;2023-02-11T00:23:09;6.50;99.90
51982;DHT22;37998;53.416;6.730;2023-02-11T00:25:43;6.50;99.90
51982;DHT22;37998;53.416;6.730;2023-02-11T00:28:09;6.50;99.90
51982;DHT22;37998;53.416;6.730;2023-02-11T00:30:35;6.40;99.90
51982;DHT22;37998;53.416;6.730;2023-02-11T00:33:01;6.40;99.90
51982;DHT22;37998;53.416;6.730;2023-02-11T00:35:27;6.50;99.90
51982;DHT22;37998;53.416;6.730;2023-02-11T00:37:54;6.50;99.90
51982;DHT22;37998;53.416;6.730;2023-02-11T00:40:19;6.50;99.90
51982;DHT22;37998;53.416;6.730;2023-02-11T00:42:45;6.50;99.90
51982;DHT22;37998;53.416;6.730;2023-02-11T00:45:11;6.50;99.90
51982;DHT22;37998;53.416;6.730;2023-02-11T00:47:37;6.50;99.90
51982;DHT22;37998;53.416;6.730;2023-02-11T00:50:04;6.50;99.90
51982;DHT22;37998;53.416;6.730;2023-02-11T00:52:30;6.50;99.90
51982;DHT22;37998;53.416;6.730;2023-02-11T00:54:56;6.60;99.90
51982;DHT22;37998;53.416;6.730;2023-02-11T00:57:22;6.60;99.90
51982;DHT22;37998;53.416;6.730;2023-02-11T00:59:48;7.60;99.90
51982;DHT22;37998;53.416;6.730;2023-02-11T01:02:14;6.60;99.90
51982;DHT22;37998;53.416;6.730;2023-02-11T01:04:39;6.60;99.90
51982;DHT22;37998;53.416;6.730;2023-02-11T01:07:05;6.60;99.90
51982;DHT22;37998;53.416;6.730;2023-02-11T01:09:30;6.60;99.90
51982;DHT22;37998;53.416;6.730;2023-02-11T01:11:56;6.60;99.90
51982;DHT22;37998;53.416;6.730;2023-02-11T01:14:21;6.60;99.90
51982;DHT22;37998;53.416;6.730;2023-02-11T01:16:47;6.60;99.90
51982;DHT22;37998;53.416;6.730;2023-02-11T01:19:13;6.60;99.90
51982;DHT22;37998;53.416;6.730;2023-02-11T01:21:38;6.60;99.90
51982;DHT22;37998;53.416;6.730;2023-02-11T01:24:04;6.60;99.90
51982;DHT22;37998;53.416;6.730;2023-02-11T01:26:30;6.60;99.90
51982;DHT22;37998;53.416;6.730;2023-02-11T01:28:55;6.60;99.90
51982;DHT22;37998;53.416;6.730;2023-02-11T01:31:21;6.60;99.90
51982;DHT22;37998;53.416;6.730;2023-02-11T01:33:46;6.60;99.90
51982;DHT22;37998;53.416;6.730;2023-02-11T01:36:13;6.60;99.90
51982;DHT22;37998;53.416;6.730;2023-02-11T01:38:39;6.60;99.90
51982;DHT22;37998;53.416;6.730;2023-02-11T01:41:08;6.60;99.90
51982;DHT22;37998;53.416;6.730;2023-02-11T01:43:40;6.60;99.90
51982;DHT22;37998;53.416;6.730;2023-02-11T01:46:33;6.60;99.90
51982;DHT22;37998;53.416;6.730;2023-02-11T01:54:10;6.60;99.90
51982;DHT22;37998;53.416;6.730;2023-02-11T01:56:57;6.60;99.90
51982;DHT22;37998;53.416;6.730;2023-02-11T02:02:41;6.70;99.90
51982;DHT22;37998;53.416;6.730;2023-02-11T02:10:34;6.70;99.90
51982;DHT22;37998;53.416;6.730;2023-02-11T02:13:02;6.70;99.90
51982;DHT22;37998;53.416;6.730;2023-02-11T02:15:35;6.80;99.90
51982;DHT22;37998;53.416;6.730;2023-02-11T02:18:12;6.80;99.90
51982;DHT22;37998;53.416;6.730;2023-02-11T02:24:41;7.60;99.90
51982;DHT22;37998;53.416;6.730;2023-02-11T02:27:12;6.90;99.90
51982;DHT22;37998;53.416;6.730;2023-02-11T02:32:46;6.90;99.90
51982;DHT22;37998;53.416;6.730;2023-02-11T02:37:50;6.90;99.90
51982;DHT22;37998;53.416;6.730;2023-02-11T02:40:21;7.00;99.90
51982;DHT22;37998;53.416;6.730;2023-02-11T02:42:48;7.10;99.90
51982;DHT22;37998;53.416;6.730;2023-02-11T02:45:15;7.10;99.90
51982;DHT22;37998;53.416;6.730;2023-02-11T02:47:41;7.10;99.90
51982;DHT22;37998;53.416;6.730;2023-02-11T02:50:07;7.10;99.90
51982;DHT22;37998;53.416;6.730;2023-02-11T03:00:49;7.20;99.90
51982;DHT22;37998;53.416;6.730;2023-02-11T03:06:22;7.40;99.90
51982;DHT22;37998;53.416;6.730;2023-02-11T03:08:59;7.40;99.90
51982;DHT22;37998;53.416;6.730;2023-02-11T03:11:28;7.50;99.90
51982;DHT22;37998;53.416;6.730;2023-02-11T03:13:54;7.50;99.90
51982;DHT22;37998;53.416;6.730;2023-02-11T03:16:23;7.50;99.90
51982;DHT22;37998;53.416;6.730;2023-02-11T03:18:56;7.60;99.90
51982;DHT22;37998;53.416;6.730;2023-02-11T03:21:24;7.60;99.90
51982;DHT22;37998;53.416;6.730;2023-02-11T03:23:59;7.50;99.90
51982;DHT22;37998;53.416;6.730;2023-02-11T03:26:36;7.60;99.90
51982;DHT22;37998;53.416;6.730;2023-02-11T03:32:22;7.60;99.90
51982;DHT22;37998;53.416;6.730;2023-02-11T03:38:17;7.60;99.90
51982;DHT22;37998;53.416;6.730;2023-02-11T03:40:45;7.60;99.90
51982;DHT22;37998;53.416;6.730;2023-02-11T03:43:17;7.60;99.90
51982;DHT22;37998;53.416;6.730;2023-02-11T03:45:46;7.70;99.90
51982;DHT22;37998;53.416;6.730;2023-02-11T03:48:15;7.70;99.90
51982;DHT22;37998;53.416;6.730;2023-02-11T03:50:42;7.70;99.90
51982;DHT22;37998;53.416;6.730;2023-02-11T03:53:11;7.00;99.90
51982;DHT22;37998;53.416;6.730;2023-02-11T03:55:38;7.70;99.90
51982;DHT22;37998;53.416;6.730;2023-02-11T03:58:05;7.70;99.90
51982;DHT22;37998;53.416;6.730;2023-02-11T04:00:36;7.70;99.90
51982;DHT22;37998;53.416;6.730;2023-02-11T04:03:02;7.80;99.90
51982;DHT22;37998;53.416;6.730;2023-02-11T04:05:29;7.80;99.90
51982;DHT22;37998;53.416;6.730;2023-02-11T04:07:54;7.80;99.90
51982;DHT22;37998;53.416;6.730;2023-02-11T04:10:20;7.80;99.90
51982;DHT22;37998;53.416;6.730;2023-02-11T04:12:46;7.80;99.90
51982;DHT22;37998;53.416;6.730;2023-02-11T04:15:12;7.80;99.90
51982;DHT22;37998;53.416;6.730;2023-02-11T04:17:38;7.80;99.90
51982;DHT22;37998;53.416;6.730;2023-02-11T04:20:03;7.80;99.90
51982;DHT22;37998;53.416;6.730;2023-02-11T04:22:29;7.80;99.90
51982;DHT22;37998;53.416;6.730;2023-02-11T04:24:55;7.80;99.90
51982;DHT22;37998;53.416;6.730;2023-02-11T04:27:21;7.90;99.90
51982;DHT22;37998;53.416;6.730;2023-02-11T04:29:47;7.90;99.90
51982;DHT22;37998;53.416;6.730;2023-02-11T04:32:13;7.90;99.90
51982;DHT22;37998;53.416;6.730;2023-02-11T04:34:39;7.90;99.90
51982;DHT22;37998;53.416;6.730;2023-02-11T04:37:05;7.90;99.90
51982;DHT22;37998;53.416;6.730;2023-02-11T04:39:30;7.90;99.90
51982;DHT22;37998;53.416;6.730;2023-02-11T04:41:56;7.90;99.90
51982;DHT22;37998;53.416;6.730;2023-02-11T04:44:21;7.90;99.90
51982;DHT22;37998;53.416;6.730;2023-02-11T04:46:47;7.90;99.90
51982;DHT22;37998;53.416;6.730;2023-02-11T04:49:14;7.90;99.90
51982;DHT22;37998;53.416;6.730;2023-02-11T04:51:40;7.90;99.90
51982;DHT22;37998;53.416;6.730;2023-02-11T04:54:06;8.00;99.90
51982;DHT22;37998;53.416;6.730;2023-02-11T04:56:32;8.00;99.90
51982;DHT22;37998;53.416;6.730;2023-02-11T04:58:58;8.00;99.90
51982;DHT22;37998;53.416;6.730;2023-02-11T05:01:24;8.10;99.90
51982;DHT22;37998;53.416;6.730;2023-02-11T05:03:49;8.10;99.90
51982;DHT22;37998;53.416;6.730;2023-02-11T05:06:15;8.10;99.90
51982;DHT22;37998;53.416;6.730;2023-02-11T05:08:41;8.10;99.90
51982;DHT22;37998;53.416;6.730;2023-02-11T05:11:07;8.10;99.90
51982;DHT22;37998;53.416;6.730;2023-02-11T05:13:33;8.20;99.90
51982;DHT22;37998;53.416;6.730;2023-02-11T05:16:00;8.20;99.90
51982;DHT22;37998;53.416;6.730;2023-02-11T05:18:25;9.30;99.90
51982;DHT22;37998;53.416;6.730;2023-02-11T05:20:51;8.10;99.90
51982;DHT22;37998;53.416;6.730;2023-02-11T05:23:17;8.10;99.90
51982;DHT22;37998;53.416;6.730;2023-02-11T05:25:42;8.40;99.90
51982;DHT22;37998;53.416;6.730;2023-02-11T05:28:08;8.20;99.90
51982;DHT22;37998;53.416;6.730;2023-02-11T05:30:33;8.20;99.90
51982;DHT22;37998;53.416;6.730;2023-02-11T05:32:59;8.10;99.90
51982;DHT22;37998;53.416;6.730;2023-02-11T05:35:25;8.20;99.90
51982;DHT22;37998;53.416;6.730;2023-02-11T05:37:51;8.20;99.90
51982;DHT22;37998;53.416;6.730;2023-02-11T05:40:16;8.20;99.90
51982;DHT22;37998;53.416;6.730;2023-02-11T05:42:42;8.20;99.90
51982;DHT22;37998;53.416;6.730;2023-02-11T05:45:08;8.20;99.90
51982;DHT22;37998;53.416;6.730;2023-02-11T05:47:33;8.10;99.90
51982;DHT22;37998;53.416;6.730;2023-02-11T05:49:59;8.10;99.90
51982;DHT22;37998;53.416;6.730;2023-02-11T05:52:25;8.10;99.90
51982;DHT22;37998;53.416;6.730;2023-02-11T05:54:50;8.10;99.90
51982;DHT22;37998;53.416;6.730;2023-02-11T05:57:17;8.00;99.90
51982;DHT22;37998;53.416;6.730;2023-02-11T05:59:42;8.00;99.90
51982;DHT22;37998;53.416;6.730;2023-02-11T06:02:09;8.00;99.90
51982;DHT22;37998;53.416;6.730;2023-02-11T06:04:35;8.10;99.90
51982;DHT22;37998;53.416;6.730;2023-02-11T06:07:01;8.00;99.90
51982;DHT22;37998;53.416;6.730;2023-02-11T06:09:26;8.10;99.90
51982;DHT22;37998;53.416;6.730;2023-02-11T06:11:52;8.00;99.90
51982;DHT22;37998;53.416;6.730;2023-02-11T06:14:18;8.10;99.90
51982;DHT22;37998;53.416;6.730;2023-02-11T06:16:44;8.10;99.90
51982;DHT22;37998;53.416;6.730;2023-02-11T06:19:10;8.00;99.90
51982;DHT22;37998;53.416;6.730;2023-02-11T06:21:36;8.10;99.90
51982;DHT22;37998;53.416;6.730;2023-02-11T06:24:02;8.00;99.90
51982;DHT22;37998;53.416;6.730;2023-02-11T06:26:27;8.00;99.90
51982;DHT22;37998;53.416;6.730;2023-02-11T06:28:53;8.00;99.90
51982;DHT22;37998;53.416;6.730;2023-02-11T06:31:19;8.00;99.90
51982;DHT22;37998;53.416;6.730;2023-02-11T06:33:45;8.00;99.90
51982;DHT22;37998;53.416;6.730;2023-02-11T06:36:14;8.10;99.90
51982;DHT22;37998;53.416;6.730;2023-02-11T06:38:40;8.00;99.90
51982;DHT22;37998;53.416;6.730;2023-02-11T06:41:07;8.10;99.90
51982;DHT22;37998;53.416;6.730;2023-02-11T06:43:33;8.10;99.90
51982;DHT22;37998;53.416;6.730;2023-02-11T06:45:58;8.10;99.90
51982;DHT22;37998;53.416;6.730;2023-02-11T06:48:24;8.10;99.90
51982;DHT22;37998;53.416;6.730;2023-02-11T06:50:50;8.10;99.90
51982;DHT22;37998;53.416;6.730;2023-02-11T06:53:15;8.10;99.90
51982;DHT22;37998;53.416;6.730;2023-02-11T06:55:41;8.10;99.90
51982;DHT22;37998;53.416;6.730;2023-02-11T06:58:07;8.10;99.90
51982;DHT22;37998;53.416;6.730;2023-02-11T07:00:33;8.00;99.90
51982;DHT22;37998;53.416;6.730;2023-02-11T07:02:58;8.10;99.90
51982;DHT22;37998;53.416;6.730;2023-02-11T07:05:24;8.00;99.90
51982;DHT22;37998;53.416;6.730;2023-02-11T07:07:49;8.00;99.90
51982;DHT22;37998;53.416;6.730;2023-02-11T07:10:15;8.00;99.90
51982;DHT22;37998;53.416;6.730;2023-02-11T07:12:41;8.00;99.90
51982;DHT22;37998;53.416;6.730;2023-02-11T07:15:07;7.90;99.90
51982;DHT22;37998;53.416;6.730;2023-02-11T07:17:34;8.00;99.90
51982;DHT22;37998;53.416;6.730;2023-02-11T07:20:00;7.90;99.90
51982;DHT22;37998;53.416;6.730;2023-02-11T07:22:26;7.90;99.90
51982;DHT22;37998;53.416;6.730;2023-02-11T07:24:51;7.90;99.90
51982;DHT22;37998;53.416;6.730;2023-02-11T07:27:17;7.90;99.90
51982;DHT22;37998;53.416;6.730;2023-02-11T07:29:43;7.90;99.90
51982;DHT22;37998;53.416;6.730;2023-02-11T07:32:12;7.90;99.90
51982;DHT22;37998;53.416;6.730;2023-02-11T07:34:37;7.90;99.90
51982;DHT22;37998;53.416;6.730;2023-02-11T07:37:03;7.90;99.90
51982;DHT22;37998;53.416;6.730;2023-02-11T07:39:29;7.90;99.90
51982;DHT22;37998;53.416;6.730;2023-02-11T07:41:54;7.90;99.90
51982;DHT22;37998;53.416;6.730;2023-02-11T07:44:21;7.90;99.90
51982;DHT22;37998;53.416;6.730;2023-02-11T07:46:46;7.80;99.90
51982;DHT22;37998;53.416;6.730;2023-02-11T07:49:13;7.80;99.90
51982;DHT22;37998;53.416;6.730;2023-02-11T07:51:39;7.80;99.90
51982;DHT22;37998;53.416;6.730;2023-02-11T07:54:05;7.90;99.90
51982;DHT22;37998;53.416;6.730;2023-02-11T07:56:31;8.00;99.90
51982;DHT22;37998;53.416;6.730;2023-02-11T07:59:00;7.90;99.90
51982;DHT22;37998;53.416;6.730;2023-02-11T08:01:26;7.80;99.90
51982;DHT22;37998;53.416;6.730;2023-02-11T08:03:56;7.90;99.90
51982;DHT22;37998;53.416;6.730;2023-02-11T08:06:24;7.90;99.90
51982;DHT22;37998;53.416;6.730;2023-02-11T08:08:50;7.90;99.90
51982;DHT22;37998;53.416;6.730;2023-02-11T08:11:17;7.90;99.90
51982;DHT22;37998;53.416;6.730;2023-02-11T08:13:43;7.90;99.90
51982;DHT22;37998;53.416;6.730;2023-02-11T08:18:42;8.00;99.90
51982;DHT22;37998;53.416;6.730;2023-02-11T08:21:08;8.00;99.90
51982;DHT22;37998;53.416;6.730;2023-02-11T08:23:44;8.00;99.90
51982;DHT22;37998;53.416;6.730;2023-02-11T08:26:13;8.00;99.90
51982;DHT22;37998;53.416;6.730;2023-02-11T08:28:46;8.10;99.90
51982;DHT22;37998;53.416;6.730;2023-02-11T08:31:28;8.00;99.90
51982;DHT22;37998;53.416;6.730;2023-02-11T08:33:54;8.10;99.90
51982;DHT22;37998;53.416;6.730;2023-02-11T08:36:24;8.00;99.90
51982;DHT22;37998;53.416;6.730;2023-02-11T08:38:52;8.10;99.90
51982;DHT22;37998;53.416;6.730;2023-02-11T08:41:18;8.00;99.90
51982;DHT22;37998;53.416;6.730;2023-02-11T08:43:44;8.10;99.90
51982;DHT22;37998;53.416;6.730;2023-02-11T08:46:13;8.10;99.90
51982;DHT22;37998;53.416;6.730;2023-02-11T08:48:40;8.10;99.90
51982;DHT22;37998;53.416;6.730;2023-02-11T08:51:12;8.10;99.90
51982;DHT22;37998;53.416;6.730;2023-02-11T08:53:38;8.10;99.90
51982;DHT22;37998;53.416;6.730;2023-02-11T08:56:04;8.10;99.90
51982;DHT22;37998;53.416;6.730;2023-02-11T08:58:30;8.20;99.90
51982;DHT22;37998;53.416;6.730;2023-02-11T09:00:56;8.20;99.90
51982;DHT22;37998;53.416;6.730;2023-02-11T09:03:22;8.20;99.90
51982;DHT22;37998;53.416;6.730;2023-02-11T09:05:49;8.20;99.90
51982;DHT22;37998;53.416;6.730;2023-02-11T09:08:15;8.20;99.90
51982;DHT22;37998;53.416;6.730;2023-02-11T09:10:41;8.20;99.90
51982;DHT22;37998;53.416;6.730;2023-02-11T09:13:08;8.20;99.90
51982;DHT22;37998;53.416;6.730;2023-02-11T09:15:34;8.20;99.90
51982;DHT22;37998;53.416;6.730;2023-02-11T09:18:00;8.20;99.90
51982;DHT22;37998;53.416;6.730;2023-02-11T09:20:26;8.30;99.90
51982;DHT22;37998;53.416;6.730;2023-02-11T09:22:53;8.30;99.90
51982;DHT22;37998;53.416;6.730;2023-02-11T09:25:19;8.40;99.90
51982;DHT22;37998;53.416;6.730;2023-02-11T09:27:45;8.40;99.90
51982;DHT22;37998;53.416;6.730;2023-02-11T09:30:11;8.40;99.90
51982;DHT22;37998;53.416;6.730;2023-02-11T09:32:37;8.40;99.90
51982;DHT22;37998;53.416;6.730;2023-02-11T09:35:03;8.50;99.90
51982;DHT22;37998;53.416;6.730;2023-02-11T09:37:29;8.50;99.90
51982;DHT22;37998;53.416;6.730;2023-02-11T09:39:55;8.50;99.90
51982;DHT22;37998;53.416;6.730;2023-02-11T09:42:44;8.50;99.90
51982;DHT22;37998;53.416;6.730;2023-02-11T09:45:23;8.50;99.90
51982;DHT22;37998;53.416;6.730;2023-02-11T09:48:01;8.50;99.90
51982;DHT22;37998;53.416;6.730;2023-02-11T09:50:43;8.60;99.90
51982;DHT22;37998;53.416;6.730;2023-02-11T09:53:17;8.70;99.90
51982;DHT22;37998;53.416;6.730;2023-02-11T09:55:47;8.60;99.90
51982;DHT22;37998;53.416;6.730;2023-02-11T09:58:16;8.70;99.90
51982;DHT22;37998;53.416;6.730;2023-02-11T10:00:47;8.70;99.90
51982;DHT22;37998;53.416;6.730;2023-02-11T10:03:52;8.70;99.90
51982;DHT22;37998;53.416;6.730;2023-02-11T10:06:52;8.70;99.90
51982;DHT22;37998;53.416;6.730;2023-02-11T10:17:50;9.60;99.90
51982;DHT22;37998;53.416;6.730;2023-02-11T10:20:38;8.70;99.90
51982;DHT22;37998;53.416;6.730;2023-02-11T10:23:23;8.80;99.90
51982;DHT22;37998;53.416;6.730;2023-02-11T10:25:54;8.90;99.90
51982;DHT22;37998;53.416;6.730;2023-02-11T10:28:39;9.00;99.90
51982;DHT22;37998;53.416;6.730;2023-02-11T10:31:26;9.00;99.90
51982;DHT22;37998;53.416;6.730;2023-02-11T10:34:06;9.10;99.90
51982;DHT22;37998;53.416;6.730;2023-02-11T10:36:34;9.10;99.90
51982;DHT22;37998;53.416;6.730;2023-02-11T10:39:22;9.20;99.90
51982;DHT22;37998;53.416;6.730;2023-02-11T10:42:01;9.20;99.90
51982;DHT22;37998;53.416;6.730;2023-02-11T10:44:54;9.30;99.90
51982;DHT22;37998;53.416;6.730;2023-02-11T10:47:24;9.30;99.90
51982;DHT22;37998;53.416;6.730;2023-02-11T10:49:51;9.30;99.90
51982;DHT22;37998;53.416;6.730;2023-02-11T10:52:28;9.30;99.90
51982;DHT22;37998;53.416;6.730;2023-02-11T10:57:33;9.30;99.90
51982;DHT22;37998;53.416;6.730;2023-02-11T11:00:06;9.30;99.90
51982;DHT22;37998;53.416;6.730;2023-02-11T11:02:35;9.30;99.90
51982;DHT22;37998;53.416;6.730;2023-02-11T11:05:28;9.30;99.90
51982;DHT22;37998;53.416;6.730;2023-02-11T11:08:18;9.30;99.90
51982;DHT22;37998;53.416;6.730;2023-02-11T11:10:47;9.30;99.90
51982;DHT22;37998;53.416;6.730;2023-02-11T11:18:49;9.30;99.90
51982;DHT22;37998;53.416;6.730;2023-02-11T11:23:55;9.30;99.90
51982;DHT22;37998;53.416;6.730;2023-02-11T11:26:23;9.30;99.90
51982;DHT22;37998;53.416;6.730;2023-02-11T11:28:53;9.30;99.90
51982;DHT22;37998;53.416;6.730;2023-02-11T11:31:30;9.30;99.90
51982;DHT22;37998;53.416;6.730;2023-02-11T11:33:59;9.40;99.90
51982;DHT22;37998;53.416;6.730;2023-02-11T11:36:37;9.50;99.90
51982;DHT22;37998;53.416;6.730;2023-02-11T11:41:53;9.50;99.90
51982;DHT22;37998;53.416;6.730;2023-02-11T11:44:29;9.60;99.90
51982;DHT22;37998;53.416;6.730;2023-02-11T11:47:35;9.60;99.90
51982;DHT22;37998;53.416;6.730;2023-02-11T11:50:32;9.60;99.90
51982;DHT22;37998;53.416;6.730;2023-02-11T11:53:00;9.60;99.90
51982;DHT22;37998;53.416;6.730;2023-02-11T11:55:43;9.60;99.90
51982;DHT22;37998;53.416;6.730;2023-02-11T11:58:16;9.60;99.90
51982;DHT22;37998;53.416;6.730;2023-02-11T12:01:14;9.60;99.90
51982;DHT22;37998;53.416;6.730;2023-02-11T12:06:34;9.60;99.90
51982;DHT22;37998;53.416;6.730;2023-02-11T12:09:18;9.60;99.90
51982;DHT22;37998;53.416;6.730;2023-02-11T12:14:45;9.50;99.90
51982;DHT22;37998;53.416;6.730;2023-02-11T12:20:11;9.50;99.90
51982;DHT22;37998;53.416;6.730;2023-02-11T12:28:39;9.30;99.90
51982;DHT22;37998;53.416;6.730;2023-02-11T12:39:39;9.30;99.90
51982;DHT22;37998;53.416;6.730;2023-02-11T12:50:43;9.30;99.90
51982;DHT22;37998;53.416;6.730;2023-02-11T12:53:40;9.30;99.90
51982;DHT22;37998;53.416;6.730;2023-02-11T12:56:40;9.30;99.90
51982;DHT22;37998;53.416;6.730;2023-02-11T12:59:10;9.40;99.90
51982;DHT22;37998;53.416;6.730;2023-02-11T13:01:42;9.40;99.90
51982;DHT22;37998;53.416;6.730;2023-02-11T13:04:28;9.40;99.90
51982;DHT22;37998;53.416;6.730;2023-02-11T13:07:01;9.40;99.90
51982;DHT22;37998;53.416;6.730;2023-02-11T13:09:40;9.50;99.90
51982;DHT22;37998;53.416;6.730;2023-02-11T13:12:11;9.40;99.90
51982;DHT22;37998;53.416;6.730;2023-02-11T13:15:01;9.40;99.90
51982;DHT22;37998;53.416;6.730;2023-02-11T13:17:33;9.40;99.90
51982;DHT22;37998;53.416;6.730;2023-02-11T13:20:37;9.40;99.90
51982;DHT22;37998;53.416;6.730;2023-02-11T13:23:43;9.40;99.90
51982;DHT22;37998;53.416;6.730;2023-02-11T13:26:26;9.40;99.90
51982;DHT22;37998;53.416;6.730;2023-02-11T13:29:20;9.40;99.90
51982;DHT22;37998;53.416;6.730;2023-02-11T13:32:20;9.40;99.90
51982;DHT22;37998;53.416;6.730;2023-02-11T13:34:52;9.40;99.90
51982;DHT22;37998;53.416;6.730;2023-02-11T13:37:22;9.40;99.90
51982;DHT22;37998;53.416;6.730;2023-02-11T13:39:56;9.30;99.90
51982;DHT22;37998;53.416;6.730;2023-02-11T13:42:23;9.40;99.90
51982;DHT22;37998;53.416;6.730;2023-02-11T13:44:49;9.40;99.90
51982;DHT22;37998;53.416;6.730;2023-02-11T13:49:55;9.50;99.90
51982;DHT22;37998;53.416;6.730;2023-02-11T13:52:29;9.50;99.90
51982;DHT22;37998;53.416;6.730;2023-02-11T13:55:02;9.50;99.90
51982;DHT22;37998;53.416;6.730;2023-02-11T13:57:35;9.50;99.90
51982;DHT22;37998;53.416;6.730;2023-02-11T14:02:37;9.50;99.90
51982;DHT22;37998;53.416;6.730;2023-02-11T14:13:32;9.40;99.90
51982;DHT22;37998;53.416;6.730;2023-02-11T14:16:13;9.40;99.90
51982;DHT22;37998;53.416;6.730;2023-02-11T14:18:57;9.50;99.90
51982;DHT22;37998;53.416;6.730;2023-02-11T14:26:58;9.60;99.90
51982;DHT22;37998;53.416;6.730;2023-02-11T14:32:31;9.40;99.90
51982;DHT22;37998;53.416;6.730;2023-02-11T14:40:40;9.40;99.90
51982;DHT22;37998;53.416;6.730;2023-02-11T14:43:25;9.30;99.90
51982;DHT22;37998;53.416;6.730;2023-02-11T14:45:55;9.30;99.90
51982;DHT22;37998;53.416;6.730;2023-02-11T14:48:27;9.30;99.90
51982;DHT22;37998;53.416;6.730;2023-02-11T14:51:01;9.30;99.90
51982;DHT22;37998;53.416;6.730;2023-02-11T14:53:27;9.30;99.90
51982;DHT22;37998;53.416;6.730;2023-02-11T14:55:54;9.20;99.90
51982;DHT22;37998;53.416;6.730;2023-02-11T15:01:21;9.20;99.90
51982;DHT22;37998;53.416;6.730;2023-02-11T15:03:48;9.30;99.90
51982;DHT22;37998;53.416;6.730;2023-02-11T15:08:56;9.20;99.90
51982;DHT22;37998;53.416;6.730;2023-02-11T15:11:26;9.20;99.90
51982;DHT22;37998;53.416;6.730;2023-02-11T15:13:52;9.10;99.90
51982;DHT22;37998;53.416;6.730;2023-02-11T15:16:22;9.10;99.90
51982;DHT22;37998;53.416;6.730;2023-02-11T15:18:55;9.10;99.90
51982;DHT22;37998;53.416;6.730;2023-02-11T15:21:28;9.10;99.90
51982;DHT22;37998;53.416;6.730;2023-02-11T15:24:03;9.10;99.90
51982;DHT22;37998;53.416;6.730;2023-02-11T15:26:32;9.10;99.90
51982;DHT22;37998;53.416;6.730;2023-02-11T15:28:58;9.00;99.90
51982;DHT22;37998;53.416;6.730;2023-02-11T15:31:26;9.00;99.90
51982;DHT22;37998;53.416;6.730;2023-02-11T15:33:53;9.00;99.90
51982;DHT22;37998;53.416;6.730;2023-02-11T15:36:23;9.00;99.90
51982;DHT22;37998;53.416;6.730;2023-02-11T15:39:32;9.00;99.90
51982;DHT22;37998;53.416;6.730;2023-02-11T15:42:35;8.90;99.90
51982;DHT22;37998;53.416;6.730;2023-02-11T15:47:39;8.90;99.90
51982;DHT22;37998;53.416;6.730;2023-02-11T15:50:06;8.80;99.90
51982;DHT22;37998;53.416;6.730;2023-02-11T15:52:32;8.90;99.90
51982;DHT22;37998;53.416;6.730;2023-02-11T15:54:59;8.80;99.90
51982;DHT22;37998;53.416;6.730;2023-02-11T15:57:26;8.80;99.90
51982;DHT22;37998;53.416;6.730;2023-02-11T15:59:53;8.80;99.90
51982;DHT22;37998;53.416;6.730;2023-02-11T16:02:32;8.70;99.90
51982;DHT22;37998;53.416;6.730;2023-02-11T16:05:02;8.80;99.90
51982;DHT22;37998;53.416;6.730;2023-02-11T16:10:28;8.70;99.90
51982;DHT22;37998;53.416;6.730;2023-02-11T16:15:36;8.60;99.90
51982;DHT22;37998;53.416;6.730;2023-02-11T16:18:37;8.60;99.90
51982;DHT22;37998;53.416;6.730;2023-02-11T16:21:10;8.60;99.90
51982;DHT22;37998;53.416;6.730;2023-02-11T16:23:40;8.60;99.90
51982;DHT22;37998;53.416;6.730;2023-02-11T16:26:29;8.60;99.90
51982;DHT22;37998;53.416;6.730;2023-02-11T16:29:10;8.50;99.90
51982;DHT22;37998;53.416;6.730;2023-02-11T16:31:40;8.50;99.90
51982;DHT22;37998;53.416;6.730;2023-02-11T16:34:18;8.50;99.90
51982;DHT22;37998;53.416;6.730;2023-02-11T16:36:47;8.50;99.90
51982;DHT22;37998;53.416;6.730;2023-02-11T16:39:15;8.50;99.90
51982;DHT22;37998;53.416;6.730;2023-02-11T16:41:41;8.40;99.90
51982;DHT22;37998;53.416;6.730;2023-02-11T16:44:07;8.40;99.90
51982;DHT22;37998;53.416;6.730;2023-02-11T16:46:33;8.40;99.90
51982;DHT22;37998;53.416;6.730;2023-02-11T16:52:01;8.40;99.90
51982;DHT22;37998;53.416;6.730;2023-02-11T16:54:30;8.40;99.90
51982;DHT22;37998;53.416;6.730;2023-02-11T16:56:56;8.40;99.90
51982;DHT22;37998;53.416;6.730;2023-02-11T16:59:22;8.40;99.90
51982;DHT22;37998;53.416;6.730;2023-02-11T17:01:49;8.40;99.90
51982;DHT22;37998;53.416;6.730;2023-02-11T17:04:22;8.30;99.90
51982;DHT22;37998;53.416;6.730;2023-02-11T17:06:49;8.30;99.90
51982;DHT22;37998;53.416;6.730;2023-02-11T17:09:23;8.30;99.90
51982;DHT22;37998;53.416;6.730;2023-02-11T17:11:49;8.30;99.90
51982;DHT22;37998;53.416;6.730;2023-02-11T17:14:15;8.30;99.90
51982;DHT22;37998;53.416;6.730;2023-02-11T17:16:42;8.20;99.90
51982;DHT22;37998;53.416;6.730;2023-02-11T17:19:13;8.20;99.90
51982;DHT22;37998;53.416;6.730;2023-02-11T17:21:46;8.20;99.90
51982;DHT22;37998;53.416;6.730;2023-02-11T17:24:13;8.20;99.90
51982;DHT22;37998;53.416;6.730;2023-02-11T17:26:40;8.20;99.90
51982;DHT22;37998;53.416;6.730;2023-02-11T17:29:07;8.20;99.90
51982;DHT22;37998;53.416;6.730;2023-02-11T17:31:33;8.20;99.90
51982;DHT22;37998;53.416;6.730;2023-02-11T17:34:00;8.20;99.90
51982;DHT22;37998;53.416;6.730;2023-02-11T17:36:25;8.20;99.90
51982;DHT22;37998;53.416;6.730;2023-02-11T17:38:53;8.20;99.90
51982;DHT22;37998;53.416;6.730;2023-02-11T17:41:18;8.20;99.90
51982;DHT22;37998;53.416;6.730;2023-02-11T17:43:44;8.20;99.90
51982;DHT22;37998;53.416;6.730;2023-02-11T17:46:10;7.40;99.90
51982;DHT22;37998;53.416;6.730;2023-02-11T17:48:37;8.20;99.90
51982;DHT22;37998;53.416;6.730;2023-02-11T17:51:04;8.10;99.90
51982;DHT22;37998;53.416;6.730;2023-02-11T17:53:30;8.10;99.90
51982;DHT22;37998;53.416;6.730;2023-02-11T17:55:56;8.10;99.90
51982;DHT22;37998;53.416;6.730;2023-02-11T17:58:22;8.10;99.90
51982;DHT22;37998;53.416;6.730;2023-02-11T18:00:48;8.10;99.90
51982;DHT22;37998;53.416;6.730;2023-02-11T18:03:14;8.10;99.90
51982;DHT22;37998;53.416;6.730;2023-02-11T18:05:39;8.10;99.90
51982;DHT22;37998;53.416;6.730;2023-02-11T18:08:05;8.10;99.90
51982;DHT22;37998;53.416;6.730;2023-02-11T18:10:32;8.10;99.90
51982;DHT22;37998;53.416;6.730;2023-02-11T18:12:59;8.10;99.90
51982;DHT22;37998;53.416;6.730;2023-02-11T18:15:25;8.10;99.90
51982;DHT22;37998;53.416;6.730;2023-02-11T18:17:51;8.20;99.90
51982;DHT22;37998;53.416;6.730;2023-02-11T18:20:17;8.20;99.90
51982;DHT22;37998;53.416;6.730;2023-02-11T18:22:43;8.10;99.90
51982;DHT22;37998;53.416;6.730;2023-02-11T18:25:13;8.20;99.90